sensor_id;sensor_type;location;lat;lon;timestamp;pressure;altitude;pressure_sealevel;temperature;humidity
35291;BME280;21411;50.024;19.220;2023-12-04T00:01:14;99608.14;;;-3.69;100.00
35291;BME280;21411;50.024;19.220;2023-12-04T00:03:45;99607.98;;;-3.68;100.00
35291;BME280;21411;50.024;19.220;2023-12-04T00:06:12;99609.89;;;-3.68;100.00
35291;BME280;21411;50.024;19.220;2023-12-04T00:08:38;99611.29;;;-3.68;100.00
35291;BME280;21411;50.024;19.220;2023-12-04T00:11:06;99612.14;;;-3.68;100.00
35291;BME280;21411;50.024;19.220;2023-12-04T00:13:33;99618.56;;;-3.67;100.00
35291;BME280;21411;50.024;19.220;2023-12-04T00:16:00;99619.09;;;-3.67;100.00
35291;BME280;21411;50.024;19.220;2023-12-04T00:18:26;99617.89;;;-3.65;100.00
35291;BME280;21411;50.024;19.220;2023-12-04T00:20:53;99617.88;;;-3.64;100.00
35291;BME280;21411;50.024;19.220;2023-12-04T00:23:20;99617.19;;;-3.63;100.00
35291;BME280;21411;50.024;19.220;2023-12-04T00:25:46;99622.04;;;-3.63;100.00
35291;BME280;21411;50.024;19.220;2023-12-04T00:28:13;99625.51;;;-3.61;100.00
35291;BME280;21411;50.024;19.220;2023-12-04T00:30:39;99624.46;;;-3.61;100.00
35291;BME280;21411;50.024;19.220;2023-12-04T00:33:06;99624.65;;;-3.60;100.00
35291;BME280;21411;50.024;19.220;2023-12-04T00:35:33;99625.17;;;-3.60;100.00
35291;BME280;21411;50.024;19.220;2023-12-04T00:37:59;99621.52;;;-3.59;100.00
35291;BME280;21411;50.024;19.220;2023-12-04T00:40:26;99624.13;;;-3.58;100.00
35291;BME280;21411;50.024;19.220;2023-12-04T00:42:53;99621.36;;;-3.58;100.00
35291;BME280;21411;50.024;19.220;2023-12-04T00:45:20;99616.66;;;-3.59;100.00
35291;BME280;21411;50.024;19.220;2023-12-04T00:47:46;99617.88;;;-3.60;100.00
35291;BME280;21411;50.024;19.220;2023-12-04T00:50:13;99616.83;;;-3.62;100.00
35291;BME280;21411;50.024;19.220;2023-12-04T00:52:39;99617.53;;;-3.63;100.00
35291;BME280;21411;50.024;19.220;2023-12-04T00:55:06;99623.95;;;-3.65;100.00
35291;BME280;21411;50.024;19.220;2023-12-04T00:57:33;99625.00;;;-3.67;100.00
35291;BME280;21411;50.024;19.220;2023-12-04T00:59:59;99629.51;;;-3.69;100.00
35291;BME280;21411;50.024;19.220;2023-12-04T01:02:26;99628.98;;;-3.71;100.00
35291;BME280;21411;50.024;19.220;2023-12-04T01:04:53;99634.52;;;-3.71;100.00
35291;BME280;21411;50.024;19.220;2023-12-04T01:07:19;99632.61;;;-3.72;100.00
35291;BME280;21411;50.024;19.220;2023-12-04T01:09:46;99631.41;;;-3.73;100.00
35291;BME280;21411;50.024;19.220;2023-12-04T01:12:13;99630.19;;;-3.74;100.00
35291;BME280;21411;50.024;19.220;2023-12-04T01:14:39;99632.62;;;-3.74;100.00
35291;BME280;21411;50.024;19.220;2023-12-04T01:17:06;99628.27;;;-3.75;100.00
35291;BME280;21411;50.024;19.220;2023-12-04T01:19:32;99627.94;;;-3.76;100.00
35291;BME280;21411;50.024;19.220;2023-12-04T01:21:59;99629.16;;;-3.77;100.00
35291;BME280;21411;50.024;19.220;2023-12-04T01:24:26;99631.41;;;-3.78;100.00
35291;BME280;21411;50.024;19.220;2023-12-04T01:26:52;99632.62;;;-3.80;100.00
35291;BME280;21411;50.024;19.220;2023-12-04T01:29:19;99631.58;;;-3.81;100.00
35291;BME280;21411;50.024;19.220;2023-12-04T01:31:45;99634.89;;;-3.81;100.00
35291;BME280;21411;50.024;19.220;2023-12-04T01:34:12;99635.23;;;-3.82;100.00
35291;BME280;21411;50.024;19.220;2023-12-04T01:36:42;99636.45;;;-3.82;100.00
35291;BME280;21411;50.024;19.220;2023-12-04T01:39:08;99631.92;;;-3.83;100.00
35291;BME280;21411;50.024;19.220;2023-12-04T01:41:35;99630.70;;;-3.83;100.00
35291;BME280;21411;50.024;19.220;2023-12-04T01:44:02;99629.15;;;-3.85;100.00
35291;BME280;21411;50.024;19.220;2023-12-04T01:46:28;99631.73;;;-3.85;100.00
35291;BME280;21411;50.024;19.220;2023-12-04T01:48:55;99633.65;;;-3.86;100.00
35291;BME280;21411;50.024;19.220;2023-12-04T01:51:23;99635.91;;;-3.87;100.00
35291;BME280;21411;50.024;19.220;2023-12-04T01:53:50;99635.73;;;-3.88;100.00
35291;BME280;21411;50.024;19.220;2023-12-04T01:56:17;99635.21;;;-3.88;100.00
35291;BME280;21411;50.024;19.220;2023-12-04T01:58:44;99634.86;;;-3.90;100.00
35291;BME280;21411;50.024;19.220;2023-12-04T02:01:11;99633.47;;;-3.92;100.00
35291;BME280;21411;50.024;19.220;2023-12-04T02:03:40;99631.56;;;-3.94;100.00
35291;BME280;21411;50.024;19.220;2023-12-04T02:06:07;99627.73;;;-3.95;100.00
35291;BME280;21411;50.024;19.220;2023-12-04T02:08:35;99627.39;;;-3.98;100.00
35291;BME280;21411;50.024;19.220;2023-12-04T02:11:02;99626.52;;;-3.99;100.00
35291;BME280;21411;50.024;19.220;2023-12-04T02:13:29;99627.91;;;-4.02;100.00
35291;BME280;21411;50.024;19.220;2023-12-04T02:15:57;99625.64;;;-4.05;100.00
35291;BME280;21411;50.024;19.220;2023-12-04T02:18:25;99629.10;;;-4.07;100.00
35291;BME280;21411;50.024;19.220;2023-12-04T02:20:53;99626.33;;;-4.10;100.00
35291;BME280;21411;50.024;19.220;2023-12-04T02:23:19;99624.05;;;-4.13;100.00
35291;BME280;21411;50.024;19.220;2023-12-04T02:25:46;99620.40;;;-4.17;100.00
35291;BME280;21411;50.024;19.220;2023-12-04T02:28:14;99621.08;;;-4.22;100.00
35291;BME280;21411;50.024;19.220;2023-12-04T02:30:43;99620.20;;;-4.28;100.00
35291;BME280;21411;50.024;19.220;2023-12-04T02:33:11;99621.41;;;-4.34;100.00
35291;BME280;21411;50.024;19.220;2023-12-04T02:35:40;99617.73;;;-4.40;100.00
35291;BME280;21411;50.024;19.220;2023-12-04T02:38:09;99618.40;;;-4.46;100.00
35291;BME280;21411;50.024;19.220;2023-12-04T02:40:36;99619.94;;;-4.51;100.00
35291;BME280;21411;50.024;19.220;2023-12-04T02:43:03;99621.48;;;-4.56;100.00
35291;BME280;21411;50.024;19.220;2023-12-04T02:45:29;99623.03;;;-4.61;100.00
35291;BME280;21411;50.024;19.220;2023-12-04T02:47:56;99620.59;;;-4.63;100.00
35291;BME280;21411;50.024;19.220;2023-12-04T02:50:23;99621.27;;;-4.66;100.00
35291;BME280;21411;50.024;19.220;2023-12-04T02:52:49;99619.53;;;-4.68;100.00
35291;BME280;21411;50.024;19.220;2023-12-04T02:55:16;99615.88;;;-4.69;100.00
35291;BME280;21411;50.024;19.220;2023-12-04T02:57:43;99615.88;;;-4.71;100.00
35291;BME280;21411;50.024;19.220;2023-12-04T03:00:34;99618.63;;;-4.76;100.00
35291;BME280;21411;50.024;19.220;2023-12-04T03:03:01;99625.17;;;-4.83;100.00
35291;BME280;21411;50.024;19.220;2023-12-04T03:05:28;99634.00;;;-4.86;100.00
35291;BME280;21411;50.024;19.220;2023-12-04T03:07:55;99637.64;;;-4.86;100.00
35291;BME280;21411;50.024;19.220;2023-12-04T03:10:21;99640.26;;;-4.84;100.00
35291;BME280;21411;50.024;19.220;2023-12-04T03:12:48;99639.74;;;-4.81;100.00
35291;BME280;21411;50.024;19.220;2023-12-04T03:15:14;99636.83;;;-4.76;100.00
35291;BME280;21411;50.024;19.220;2023-12-04T03:17:41;99632.17;;;-4.70;100.00
35291;BME280;21411;50.024;19.220;2023-12-04T03:20:08;99630.65;;;-4.65;100.00
35291;BME280;21411;50.024;19.220;2023-12-04T03:22:36;99627.02;;;-4.59;100.00
35291;BME280;21411;50.024;19.220;2023-12-04T03:25:03;99625.84;;;-4.55;100.00
35291;BME280;21411;50.024;19.220;2023-12-04T03:27:30;99627.41;;;-4.50;100.00
35291;BME280;21411;50.024;19.220;2023-12-04T03:29:57;99628.98;;;-4.47;100.00
35291;BME280;21411;50.024;19.220;2023-12-04T03:32:23;99629.86;;;-4.44;100.00
35291;BME280;21411;50.024;19.220;2023-12-04T03:34:50;99631.08;;;-4.42;100.00
35291;BME280;21411;50.024;19.220;2023-12-04T03:37:16;99634.90;;;-4.41;100.00
35291;BME280;21411;50.024;19.220;2023-12-04T03:39:43;99634.73;;;-4.42;100.00
35291;BME280;21411;50.024;19.220;2023-12-04T03:42:10;99634.20;;;-4.41;100.00
35291;BME280;21411;50.024;19.220;2023-12-04T03:44:36;99638.71;;;-4.40;100.00
35291;BME280;21411;50.024;19.220;2023-12-04T03:47:03;99640.27;;;-4.40;100.00
35291;BME280;21411;50.024;19.220;2023-12-04T03:49:30;99639.24;;;-4.39;100.00
35291;BME280;21411;50.024;19.220;2023-12-04T03:51:56;99641.86;;;-4.37;100.00
35291;BME280;21411;50.024;19.220;2023-12-04T03:54:23;99646.38;;;-4.35;100.00
35291;BME280;21411;50.024;19.220;2023-12-04T03:56:50;99651.59;;;-4.32;100.00
35291;BME280;21411;50.024;19.220;2023-12-04T03:59:16;99657.48;;;-4.30;100.00
35291;BME280;21411;50.024;19.220;2023-12-04T04:01:43;99658.70;;;-4.28;100.00
35291;BME280;21411;50.024;19.220;2023-12-04T04:04:09;99657.15;;;-4.26;100.00
35291;BME280;21411;50.024;19.220;2023-12-04T04:06:36;99658.90;;;-4.24;100.00
35291;BME280;21411;50.024;19.220;2023-12-04T04:09:05;99659.78;;;-4.22;100.00
35291;BME280;21411;50.024;19.220;2023-12-04T04:11:31;99657.70;;;-4.18;100.00
35291;BME280;21411;50.024;19.220;2023-12-04T04:13:58;99656.66;;;-4.17;100.00
35291;BME280;21411;50.024;19.220;2023-12-04T04:16:24;99655.62;;;-4.14;100.00
35291;BME280;21411;50.024;19.220;2023-12-04T04:18:51;99657.02;;;-4.12;100.00
35291;BME280;21411;50.024;19.220;2023-12-04T04:21:18;99656.68;;;-4.11;100.00
35291;BME280;21411;50.024;19.220;2023-12-04T04:23:44;99661.36;;;-4.12;100.00
35291;BME280;21411;50.024;19.220;2023-12-04T04:26:11;99658.76;;;-4.13;100.00
35291;BME280;21411;50.024;19.220;2023-12-04T04:28:37;99657.20;;;-4.12;100.00
35291;BME280;21411;50.024;19.220;2023-12-04T04:31:04;99657.20;;;-4.11;100.00
35291;BME280;21411;50.024;19.220;2023-12-04T04:33:31;99655.82;;;-4.08;100.00
35291;BME280;21411;50.024;19.220;2023-12-04T04:35:58;99654.96;;;-4.07;100.00
35291;BME280;21411;50.024;19.220;2023-12-04T04:38:24;99650.11;;;-4.04;100.00
35291;BME280;21411;50.024;19.220;2023-12-04T04:40:51;99653.76;;;-4.02;100.00
35291;BME280;21411;50.024;19.220;2023-12-04T04:43:19;99656.36;;;-4.01;100.00
35291;BME280;21411;50.024;19.220;2023-12-04T04:45:46;99657.23;;;-4.01;100.00
35291;BME280;21411;50.024;19.220;2023-12-04T04:48:13;99657.92;;;-4.01;100.00
35291;BME280;21411;50.024;19.220;2023-12-04T04:50:39;99659.84;;;-4.02;100.00
35291;BME280;21411;50.024;19.220;2023-12-04T04:53:06;99664.51;;;-4.01;100.00
35291;BME280;21411;50.024;19.220;2023-12-04T04:55:32;99666.42;;;-4.00;100.00
35291;BME280;21411;50.024;19.220;2023-12-04T04:57:59;99668.69;;;-4.00;100.00
35291;BME280;21411;50.024;19.220;2023-12-04T05:00:26;99671.80;;;-4.01;100.00
35291;BME280;21411;50.024;19.220;2023-12-04T05:02:52;99670.25;;;-3.99;100.00
35291;BME280;21411;50.024;19.220;2023-12-04T05:05:19;99665.75;;;-3.97;100.00
35291;BME280;21411;50.024;19.220;2023-12-04T05:07:45;99662.10;;;-3.93;100.00
35291;BME280;21411;50.024;19.220;2023-12-04T05:10:12;99662.80;;;-3.91;100.00
35291;BME280;21411;50.024;19.220;2023-12-04T05:12:38;99661.77;;;-3.91;100.00
35291;BME280;21411;50.024;19.220;2023-12-04T05:15:05;99661.94;;;-3.91;100.00
35291;BME280;21411;50.024;19.220;2023-12-04T05:17:32;99659.69;;;-3.89;100.00
35291;BME280;21411;50.024;19.220;2023-12-04T05:19:59;99660.38;;;-3.87;100.00
35291;BME280;21411;50.024;19.220;2023-12-04T05:22:25;99661.60;;;-3.86;100.00
35291;BME280;21411;50.024;19.220;2023-12-04T05:24:52;99662.46;;;-3.87;100.00
35291;BME280;21411;50.024;19.220;2023-12-04T05:27:19;99662.83;;;-3.87;100.00
35291;BME280;21411;50.024;19.220;2023-12-04T05:29:45;99661.09;;;-3.87;100.00
35291;BME280;21411;50.024;19.220;2023-12-04T05:32:13;99659.86;;;-3.86;100.00
35291;BME280;21411;50.024;19.220;2023-12-04T05:34:39;99661.77;;;-3.86;100.00
35291;BME280;21411;50.024;19.220;2023-12-04T05:37:06;99660.38;;;-3.87;100.00
35291;BME280;21411;50.024;19.220;2023-12-04T05:39:33;99661.77;;;-3.87;100.00
35291;BME280;21411;50.024;19.220;2023-12-04T05:41:59;99657.61;;;-3.86;100.00
35291;BME280;21411;50.024;19.220;2023-12-04T05:44:26;99657.96;;;-3.86;100.00
35291;BME280;21411;50.024;19.220;2023-12-04T05:46:53;99656.92;;;-3.86;100.00
35291;BME280;21411;50.024;19.220;2023-12-04T05:49:20;99656.05;;;-3.85;100.00
35291;BME280;21411;50.024;19.220;2023-12-04T05:51:46;99655.54;;;-3.84;100.00
35291;BME280;21411;50.024;19.220;2023-12-04T05:54:13;99656.05;;;-3.84;100.00
35291;BME280;21411;50.024;19.220;2023-12-04T05:56:39;99653.11;;;-3.83;100.00
35291;BME280;21411;50.024;19.220;2023-12-04T05:59:06;99648.07;;;-3.81;100.00
35291;BME280;21411;50.024;19.220;2023-12-04T06:01:33;99645.29;;;-3.80;100.00
35291;BME280;21411;50.024;19.220;2023-12-04T06:03:59;99645.46;;;-3.79;100.00
35291;BME280;21411;50.024;19.220;2023-12-04T06:06:26;99643.20;;;-3.78;100.00
35291;BME280;21411;50.024;19.220;2023-12-04T06:08:53;99644.60;;;-3.77;100.00
35291;BME280;21411;50.024;19.220;2023-12-04T06:11:20;99643.39;;;-3.75;100.00
35291;BME280;21411;50.024;19.220;2023-12-04T06:13:47;99647.38;;;-3.75;100.00
35291;BME280;21411;50.024;19.220;2023-12-04T06:16:14;99649.81;;;-3.75;100.00
35291;BME280;21411;50.024;19.220;2023-12-04T06:18:40;99646.52;;;-3.76;100.00
35291;BME280;21411;50.024;19.220;2023-12-04T06:21:07;99642.70;;;-3.77;100.00
35291;BME280;21411;50.024;19.220;2023-12-04T06:23:34;99643.74;;;-3.76;100.00
35291;BME280;21411;50.024;19.220;2023-12-04T06:26:01;99645.82;;;-3.76;100.00
35291;BME280;21411;50.024;19.220;2023-12-04T06:28:28;99642.35;;;-3.76;100.00
35291;BME280;21411;50.024;19.220;2023-12-04T06:30:55;99637.66;;;-3.77;100.00
35291;BME280;21411;50.024;19.220;2023-12-04T06:33:22;99637.14;;;-3.78;100.00
35291;BME280;21411;50.024;19.220;2023-12-04T06:35:49;99637.83;;;-3.77;100.00
35291;BME280;21411;50.024;19.220;2023-12-04T06:38:16;99638.52;;;-3.74;100.00
35291;BME280;21411;50.024;19.220;2023-12-04T06:40:45;99638.87;;;-3.73;100.00
35291;BME280;21411;50.024;19.220;2023-12-04T06:43:33;99639.91;;;-3.70;100.00
35291;BME280;21411;50.024;19.220;2023-12-04T06:46:02;99638.88;;;-3.67;100.00
35291;BME280;21411;50.024;19.220;2023-12-04T06:48:29;99636.98;;;-3.66;100.00
35291;BME280;21411;50.024;19.220;2023-12-04T06:50:55;99637.84;;;-3.65;100.00
35291;BME280;21411;50.024;19.220;2023-12-04T06:53:22;99640.45;;;-3.68;100.00
35291;BME280;21411;50.024;19.220;2023-12-04T06:55:48;99640.27;;;-3.76;100.00
35291;BME280;21411;50.024;19.220;2023-12-04T06:58:15;99635.91;;;-3.84;100.00
35291;BME280;21411;50.024;19.220;2023-12-04T07:00:42;99635.55;;;-3.92;100.00
35291;BME280;21411;50.024;19.220;2023-12-04T07:03:08;99636.06;;;-4.01;100.00
35291;BME280;21411;50.024;19.220;2023-12-04T07:05:35;99641.41;;;-4.12;100.00
35291;BME280;21411;50.024;19.220;2023-12-04T07:08:02;99650.40;;;-4.22;100.00
35291;BME280;21411;50.024;19.220;2023-12-04T07:10:29;99654.01;;;-4.34;100.00
35291;BME280;21411;50.024;19.220;2023-12-04T07:12:55;99646.85;;;-4.46;100.00
35291;BME280;21411;50.024;19.220;2023-12-04T07:15:23;99642.66;;;-4.54;100.00
35291;BME280;21411;50.024;19.220;2023-12-04T07:17:49;99646.29;;;-4.58;100.00
35291;BME280;21411;50.024;19.220;2023-12-04T07:20:16;99645.58;;;-4.59;100.00
35291;BME280;21411;50.024;19.220;2023-12-04T07:22:42;99643.83;;;-4.62;100.00
35291;BME280;21411;50.024;19.220;2023-12-04T07:25:09;99639.65;;;-4.64;100.00
35291;BME280;21411;50.024;19.220;2023-12-04T07:27:36;99639.48;;;-4.62;100.00
35291;BME280;21411;50.024;19.220;2023-12-04T07:30:03;99641.77;;;-4.60;100.00
35291;BME280;21411;50.024;19.220;2023-12-04T07:32:30;99651.13;;;-4.58;100.00
35291;BME280;21411;50.024;19.220;2023-12-04T07:34:58;99650.61;;;-4.55;100.00
35291;BME280;21411;50.024;19.220;2023-12-04T07:37:25;99653.76;;;-4.51;100.00
35291;BME280;21411;50.024;19.220;2023-12-04T07:39:52;99656.73;;;-4.46;100.00
35291;BME280;21411;50.024;19.220;2023-12-04T07:42:18;99658.14;;;-4.41;100.00
35291;BME280;21411;50.024;19.220;2023-12-04T07:44:45;99655.40;;;-4.33;100.00
35291;BME280;21411;50.024;19.220;2023-12-04T07:47:13;99658.89;;;-4.27;100.00
35291;BME280;21411;50.024;19.220;2023-12-04T07:49:40;99661.68;;;-4.22;100.00
35291;BME280;21411;50.024;19.220;2023-12-04T07:52:07;99659.27;;;-4.18;100.00
35291;BME280;21411;50.024;19.220;2023-12-04T07:54:34;99659.45;;;-4.12;100.00
35291;BME280;21411;50.024;19.220;2023-12-04T07:57:00;99659.48;;;-4.06;100.00
35291;BME280;21411;50.024;19.220;2023-12-04T07:59:27;99657.25;;;-3.97;100.00
35291;BME280;21411;50.024;19.220;2023-12-04T08:01:54;99654.13;;;-3.90;100.00
35291;BME280;21411;50.024;19.220;2023-12-04T08:04:20;99654.15;;;-3.84;100.00
35291;BME280;21411;50.024;19.220;2023-12-04T08:06:47;99650.00;;;-3.77;100.00
35291;BME280;21411;50.024;19.220;2023-12-04T08:09:13;99658.33;;;-3.70;100.00
35291;BME280;21411;50.024;19.220;2023-12-04T08:11:40;99659.89;;;-3.65;100.00
35291;BME280;21411;50.024;19.220;2023-12-04T08:14:07;99660.25;;;-3.59;100.00
35291;BME280;21411;50.024;19.220;2023-12-04T08:16:33;99656.08;;;-3.54;100.00
35291;BME280;21411;50.024;19.220;2023-12-04T08:19:00;99653.13;;;-3.47;100.00
35291;BME280;21411;50.024;19.220;2023-12-04T08:21:26;99649.48;;;-3.40;100.00
35291;BME280;21411;50.024;19.220;2023-12-04T08:23:54;99647.41;;;-3.33;100.00
35291;BME280;21411;50.024;19.220;2023-12-04T08:26:22;99650.87;;;-3.24;100.00
35291;BME280;21411;50.024;19.220;2023-12-04T08:28:49;99652.44;;;-3.17;100.00
35291;BME280;21411;50.024;19.220;2023-12-04T08:31:16;99650.86;;;-3.10;100.00
35291;BME280;21411;50.024;19.220;2023-12-04T08:33:43;99654.32;;;-3.02;100.00
35291;BME280;21411;50.024;19.220;2023-12-04T08:36:11;99658.31;;;-2.95;100.00
35291;BME280;21411;50.024;19.220;2023-12-04T08:38:38;99659.34;;;-2.87;100.00
35291;BME280;21411;50.024;19.220;2023-12-04T08:41:04;99661.75;;;-2.79;100.00
35291;BME280;21411;50.024;19.220;2023-12-04T08:43:31;99657.58;;;-2.73;100.00
35291;BME280;21411;50.024;19.220;2023-12-04T08:45:58;99658.06;;;-2.66;100.00
35291;BME280;21411;50.024;19.220;2023-12-04T08:48:26;99654.39;;;-2.59;100.00
35291;BME280;21411;50.024;19.220;2023-12-04T08:50:53;99654.71;;;-2.50;100.00
35291;BME280;21411;50.024;19.220;2023-12-04T08:53:19;99655.55;;;-2.43;100.00
35291;BME280;21411;50.024;19.220;2023-12-04T08:55:46;99658.32;;;-2.37;100.00
35291;BME280;21411;50.024;19.220;2023-12-04T08:58:13;99655.84;;;-2.29;100.00
35291;BME280;21411;50.024;19.220;2023-12-04T09:00:40;99655.48;;;-2.24;100.00
35291;BME280;21411;50.024;19.220;2023-12-04T09:03:09;99651.45;;;-2.18;100.00
35291;BME280;21411;50.024;19.220;2023-12-04T09:05:39;99650.20;;;-2.12;100.00
35291;BME280;21411;50.024;19.220;2023-12-04T09:08:05;99645.83;;;-2.09;100.00
35291;BME280;21411;50.024;19.220;2023-12-04T09:10:33;99640.41;;;-2.03;100.00
35291;BME280;21411;50.024;19.220;2023-12-04T09:13:00;99640.52;;;-1.96;100.00
35291;BME280;21411;50.024;19.220;2023-12-04T09:15:26;99643.80;;;-1.89;100.00
35291;BME280;21411;50.024;19.220;2023-12-04T09:17:53;99646.20;;;-1.82;100.00
35291;BME280;21411;50.024;19.220;2023-12-04T09:20:20;99641.95;;;-1.74;100.00
35291;BME280;21411;50.024;19.220;2023-12-04T09:22:47;99637.38;;;-1.67;100.00
35291;BME280;21411;50.024;19.220;2023-12-04T09:25:13;99632.64;;;-1.62;100.00
35291;BME280;21411;50.024;19.220;2023-12-04T09:27:40;99632.59;;;-1.57;100.00
35291;BME280;21411;50.024;19.220;2023-12-04T09:30:07;99630.11;;;-1.50;100.00
35291;BME280;21411;50.024;19.220;2023-12-04T09:32:34;99625.18;;;-1.43;100.00
35291;BME280;21411;50.024;19.220;2023-12-04T09:35:00;99623.74;;;-1.39;100.00
35291;BME280;21411;50.024;19.220;2023-12-04T09:37:27;99618.31;;;-1.35;100.00
35291;BME280;21411;50.024;19.220;2023-12-04T09:39:54;99616.86;;;-1.29;100.00
35291;BME280;21411;50.024;19.220;2023-12-04T09:42:20;99614.89;;;-1.23;100.00
35291;BME280;21411;50.024;19.220;2023-12-04T09:44:48;99608.71;;;-1.16;100.00
35291;BME280;21411;50.024;19.220;2023-12-04T09:47:17;99603.25;;;-1.08;100.00
35291;BME280;21411;50.024;19.220;2023-12-04T09:49:45;99600.23;;;-1.04;100.00
35291;BME280;21411;50.024;19.220;2023-12-04T09:52:11;99596.16;;;-0.98;100.00
35291;BME280;21411;50.024;19.220;2023-12-04T09:54:38;99590.52;;;-0.91;100.00
35291;BME280;21411;50.024;19.220;2023-12-04T09:57:06;99586.08;;;-0.85;100.00
35291;BME280;21411;50.024;19.220;2023-12-04T09:59:33;99580.08;;;-0.79;100.00
35291;BME280;21411;50.024;19.220;2023-12-04T10:02:02;99577.04;;;-0.73;100.00
35291;BME280;21411;50.024;19.220;2023-12-04T10:04:29;99575.91;;;-0.66;100.00
35291;BME280;21411;50.024;19.220;2023-12-04T10:06:55;99576.17;;;-0.58;100.00
35291;BME280;21411;50.024;19.220;2023-12-04T10:09:22;99575.52;;;-0.50;100.00
35291;BME280;21411;50.024;19.220;2023-12-04T10:11:53;99570.90;;;-0.42;100.00
35291;BME280;21411;50.024;19.220;2023-12-04T10:14:20;99570.09;;;-0.33;100.00
35291;BME280;21411;50.024;19.220;2023-12-04T10:16:48;99571.02;;;-0.25;100.00
35291;BME280;21411;50.024;19.220;2023-12-04T10:19:18;99565.70;;;-0.19;100.00
35291;BME280;21411;50.024;19.220;2023-12-04T10:21:46;99565.09;;;-0.13;100.00
35291;BME280;21411;50.024;19.220;2023-12-04T10:24:26;99561.52;;;-0.08;100.00
35291;BME280;21411;50.024;19.220;2023-12-04T10:26:53;99555.98;;;0.01;100.00
35291;BME280;21411;50.024;19.220;2023-12-04T10:29:20;99553.95;;;0.07;100.00
35291;BME280;21411;50.024;19.220;2023-12-04T10:31:47;99549.95;;;0.18;100.00
35291;BME280;21411;50.024;19.220;2023-12-04T10:34:16;99546.09;;;0.30;100.00
35291;BME280;21411;50.024;19.220;2023-12-04T10:36:45;99540.13;;;0.41;100.00
35291;BME280;21411;50.024;19.220;2023-12-04T10:39:12;99536.01;;;0.46;100.00
35291;BME280;21411;50.024;19.220;2023-12-04T10:41:42;99531.11;;;0.48;100.00
35291;BME280;21411;50.024;19.220;2023-12-04T10:44:09;99528.98;;;0.49;100.00
35291;BME280;21411;50.024;19.220;2023-12-04T10:46:36;99522.73;;;0.56;100.00
35291;BME280;21411;50.024;19.220;2023-12-04T10:49:04;99522.02;;;0.66;100.00
35291;BME280;21411;50.024;19.220;2023-12-04T10:51:30;99521.36;;;0.74;100.00
35291;BME280;21411;50.024;19.220;2023-12-04T10:53:57;99514.88;;;0.83;100.00
35291;BME280;21411;50.024;19.220;2023-12-04T10:56:34;99515.14;;;0.98;100.00
35291;BME280;21411;50.024;19.220;2023-12-04T10:59:10;99512.90;;;1.05;100.00
35291;BME280;21411;50.024;19.220;2023-12-04T11:01:40;99510.77;;;1.06;100.00
35291;BME280;21411;50.024;19.220;2023-12-04T11:04:15;99507.15;;;1.03;100.00
35291;BME280;21411;50.024;19.220;2023-12-04T11:06:46;99505.33;;;0.98;100.00
35291;BME280;21411;50.024;19.220;2023-12-04T11:09:16;99504.36;;;0.93;100.00
35291;BME280;21411;50.024;19.220;2023-12-04T11:11:48;99501.45;;;0.91;100.00
35291;BME280;21411;50.024;19.220;2023-12-04T11:14:20;99497.02;;;0.85;100.00
35291;BME280;21411;50.024;19.220;2023-12-04T11:16:51;99497.80;;;0.80;100.00
35291;BME280;21411;50.024;19.220;2023-12-04T11:22:11;99487.65;;;0.80;100.00
35291;BME280;21411;50.024;19.220;2023-12-04T11:24:39;99492.13;;;0.84;100.00
35291;BME280;21411;50.024;19.220;2023-12-04T11:27:06;99494.23;;;0.84;100.00
35291;BME280;21411;50.024;19.220;2023-12-04T11:29:34;99497.05;;;0.83;100.00
35291;BME280;21411;50.024;19.220;2023-12-04T11:32:05;99493.41;;;0.81;100.00
35291;BME280;21411;50.024;19.220;2023-12-04T11:34:31;99492.54;;;0.81;100.00
35291;BME280;21411;50.024;19.220;2023-12-04T11:36:58;99490.99;;;0.80;100.00
35291;BME280;21411;50.024;19.220;2023-12-04T11:39:25;99485.89;;;0.81;100.00
35291;BME280;21411;50.024;19.220;2023-12-04T11:41:53;99480.87;;;0.79;100.00
35291;BME280;21411;50.024;19.220;2023-12-04T11:44:20;99478.30;;;0.75;100.00
35291;BME280;21411;50.024;19.220;2023-12-04T11:46:57;99478.84;;;0.75;100.00
35291;BME280;21411;50.024;19.220;2023-12-04T11:49:30;99475.58;;;0.72;100.00
35291;BME280;21411;50.024;19.220;2023-12-04T11:51:58;99470.76;;;0.69;100.00
35291;BME280;21411;50.024;19.220;2023-12-04T11:54:27;99470.27;;;0.66;100.00
35291;BME280;21411;50.024;19.220;2023-12-04T11:57:19;99469.39;;;0.66;100.00
35291;BME280;21411;50.024;19.220;2023-12-04T11:59:50;99473.30;;;0.63;100.00
35291;BME280;21411;50.024;19.220;2023-12-04T12:02:22;99476.02;;;0.67;100.00
35291;BME280;21411;50.024;19.220;2023-12-04T12:04:49;99474.30;;;0.65;100.00
35291;BME280;21411;50.024;19.220;2023-12-04T12:07:15;99469.34;;;0.60;100.00
35291;BME280;21411;50.024;19.220;2023-12-04T12:09:42;99463.15;;;0.63;100.00
35291;BME280;21411;50.024;19.220;2023-12-04T12:12:09;99459.37;;;0.69;100.00
35291;BME280;21411;50.024;19.220;2023-12-04T12:14:36;99456.27;;;0.75;100.00
35291;BME280;21411;50.024;19.220;2023-12-04T12:17:03;99451.12;;;0.79;100.00
35291;BME280;21411;50.024;19.220;2023-12-04T12:19:29;99444.64;;;0.80;100.00
35291;BME280;21411;50.024;19.220;2023-12-04T12:21:56;99442.55;;;0.79;100.00
35291;BME280;21411;50.024;19.220;2023-12-04T12:24:24;99441.77;;;0.75;100.00
35291;BME280;21411;50.024;19.220;2023-12-04T12:26:51;99435.16;;;0.73;100.00
35291;BME280;21411;50.024;19.220;2023-12-04T12:29:18;99430.61;;;0.73;100.00
35291;BME280;21411;50.024;19.220;2023-12-04T12:31:44;99428.23;;;0.70;100.00
35291;BME280;21411;50.024;19.220;2023-12-04T12:34:13;99426.19;;;0.67;100.00
35291;BME280;21411;50.024;19.220;2023-12-04T12:36:40;99419.65;;;0.61;100.00
35291;BME280;21411;50.024;19.220;2023-12-04T12:39:07;99416.95;;;0.57;100.00
35291;BME280;21411;50.024;19.220;2023-12-04T12:41:35;99414.59;;;0.52;100.00
35291;BME280;21411;50.024;19.220;2023-12-04T12:44:02;99415.23;;;0.46;100.00
35291;BME280;21411;50.024;19.220;2023-12-04T12:46:30;99409.09;;;0.37;100.00